El Seibo, Dominican Republic
Current Conditions -  °F | °C
As of 2:00 PM on Saturday 22 Nov 2014 (Local Time) from MDLR Reporting Station
Scattered Clouds Scattered Clouds  
Wind Chill: 86°   Ceiling: Unl
Heat Index: 95°   Visibility: 6mi
Dew Point: 75°   Wind: 12mph
Humidity: 70%   Direction: 20°NNE
Pressure: 29.97"   Gusts: NA
Location:  18.77°N, 69.04°W
Report Text: MDLR 221800Z 02010KT 9999 FEW020CB SCT022 30/24 Q1015 CB/NW
Loading
Personal Weather Stations






























Interactive Weather Map New forecast layout! Learn more

10-Day Weather Forecast

Advertisements
Track Severe Weather on mobile